Orrville, Alabama
Current Conditions -  °F | °C
As of 11:55 AM on Saturday 20 Dec 2014 (Local Time) from KSEM Reporting Station
Overcast Overcast  
Wind Chill: 50°   Ceiling: 1400
Heat Index: 50°   Visibility: 10mi
Dew Point: 45°   Wind: 5mph
Humidity: 82%   Direction: 10°N
Pressure: 30.18"   Gusts: NA
Location:  32.31°N, 87.25°W
Report Text: KSEM 201755Z AUTO 01004KT 10SM OVC014 10/07 A3018 RMK AO2
Loading
Personal Weather Stations






























Interactive Weather Map New forecast layout! Learn more

10-Day Weather Forecast

Advertisements
Track Severe Weather on mobile